X  Blizu METAR Podaci o vazduhoplovstvu     LYNI Nis Airport
Temperatura
11°C Temperatura
10°C Tačka Rose
94% Vlaga



Vetar
0 M/S
1 MPH
2 KM/H
1 KTS



230°
JZ
Trenutna situacija

Delimično oblačno Delimično oblačno
Vazdušni pritisak 1007.92 (hPa) - 29.76 (inHg)
Vidljivost 6.2 (Milja) - 10 (km)
Aerodrom
Aerodromski kod. LYNI

Lokacija: Nis Airport
Udaljenost: 63 (km)

Metar:
LYNI 010330Z 23001KT 9999 SCT050 11/10 Q1008 NOSIG

Vreme: 01-10-2020 05:30 CEST